Time;durP1;ratioP1;P1;durP2;ratioP2;P2;SDS_P1;SDS_P2;PMS_P1;PMS_P2;Temp;Humidity;BMP_temperature;BMP_pressure;BME280_temperature;BME280_humidity;BME280_pressure;Samples;Min_cycle;Max_cycle;Signal;HPM_P1;HPM_P2
2021/12/01 00:03:58;;;;;;;;;;;;;;;2.48;100.00;96458.13;8411718;28;19912;-76
2021/12/01 00:07:59;;;;;;;;;;;;;;;2.47;100.00;96448.53;8411927;28;20270;-75
2021/12/01 00:11:59;;;;;;;;;;;;;;;2.42;100.00;96443.25;8414174;28;19919;-76
2021/12/01 00:16:00;;;;;;;;;;;;;;;2.42;100.00;96429.88;8418331;28;19916;-78
2021/12/01 00:20:00;;;;;;;;;;;;;;;2.42;100.00;96437.09;8418718;28;19912;-79
2021/12/01 00:24:01;;;;;;;;;;;;;;;2.47;100.00;96411.13;8418591;28;19918;-78
2021/12/01 00:28:01;;;;;;;;;;;;;;;2.45;100.00;96415.97;8411829;28;19927;-77
2021/12/01 00:32:02;;;;;;;;;;;;;;;2.39;100.00;96425.16;8384546;28;19920;-76
2021/12/01 00:36:02;;;;;;;;;;;;;;;2.38;100.00;96436.91;8384754;28;19967;-75
2021/12/01 00:40:04;;;;;;;;;;;;;;;2.39;100.00;96432.38;8384584;28;19920;-76
2021/12/01 00:44:06;;;;;;;;;;;;;;;2.33;100.00;96415.63;8384336;28;19920;-77
2021/12/01 00:48:06;;;;;;;;;;;;;;;2.35;100.00;96410.78;8384351;28;19962;-78
2021/12/01 00:52:07;;;;;;;;;;;;;;;2.35;100.00;96400.09;8384044;28;20006;-78
2021/12/01 00:56:08;;;;;;;;;;;;;;;2.37;100.00;96387.25;8402278;28;19913;-78
2021/12/01 01:00:08;;;;;;;;;;;;;;;2.35;100.00;96395.56;8383821;28;19916;-76
2021/12/01 01:04:09;;;;;;;;;;;;;;;2.27;100.00;96406.13;8383895;28;19967;-78
2021/12/01 01:08:09;;;;;;;;;;;;;;;2.31;100.00;96391.09;8402324;28;19920;-79
2021/12/01 01:16:29;;;;;;;;;;;;;;;2.30;100.00;96401.00;8402251;28;20345;-78
2021/12/01 01:20:29;;;;;;;;;;;;;;;2.28;100.00;96397.00;8383798;28;19928;-78
2021/12/01 01:24:30;;;;;;;;;;;;;;;2.31;100.00;96389.22;8383460;28;19913;-78
2021/12/01 01:28:30;;;;;;;;;;;;;;;2.31;100.00;96386.56;8394269;28;20392;-79
2021/12/01 01:32:32;;;;;;;;;;;;;;;2.31;100.00;96377.75;8416897;28;19927;-78
2021/12/01 01:36:32;;;;;;;;;;;;;;;2.33;100.00;96391.59;8399996;28;19925;-78
2021/12/01 01:40:34;;;;;;;;;;;;;;;2.33;100.00;96392.41;8416489;28;19955;-78
2021/12/01 01:44:34;;;;;;;;;;;;;;;2.39;100.00;96392.31;8415992;28;20373;-77
2021/12/01 01:48:45;;;;;;;;;;;;;;;2.36;100.00;96389.13;8415721;28;20052;-76
2021/12/01 01:52:46;;;;;;;;;;;;;;;2.41;100.00;96376.78;8415801;28;20054;-77
2021/12/01 01:56:46;;;;;;;;;;;;;;;2.41;100.00;96355.44;8415569;28;19919;-76
2021/12/01 02:00:51;;;;;;;;;;;;;;;2.39;100.00;96361.06;8433162;28;20353;-77
2021/12/01 02:04:52;;;;;;;;;;;;;;;2.41;100.00;96358.09;8415219;28;20026;-77
2021/12/01 02:08:54;;;;;;;;;;;;;;;2.44;100.00;96346.81;8433749;28;19922;-77
2021/12/01 02:12:54;;;;;;;;;;;;;;;2.40;100.00;96351.16;8414961;28;20003;-76
2021/12/01 02:16:56;;;;;;;;;;;;;;;2.41;100.00;96347.41;8414954;28;19923;-77
2021/12/01 02:21:18;;;;;;;;;;;;;;;2.46;100.00;96340.09;8398116;28;19938;-78
2021/12/01 02:25:23;;;;;;;;;;;;;;;2.49;100.00;96322.69;8414856;28;19924;-78
2021/12/01 02:29:24;;;;;;;;;;;;;;;2.49;100.00;96312.00;8397114;28;19916;-78
2021/12/01 02:33:25;;;;;;;;;;;;;;;2.56;100.00;96313.19;8381346;28;19912;-78
2021/12/01 02:37:25;;;;;;;;;;;;;;;2.51;100.00;96299.94;8381821;28;19919;-79
2021/12/01 02:41:30;;;;;;;;;;;;;;;2.51;100.00;96283.13;8380869;28;20074;-76
2021/12/01 02:45:30;;;;;;;;;;;;;;;2.49;100.00;96294.09;8381013;28;19996;-76
2021/12/01 02:49:30;;;;;;;;;;;;;;;2.54;100.00;96271.84;8380955;28;19938;-77
2021/12/01 02:53:31;;;;;;;;;;;;;;;2.52;100.00;96274.81;8380855;28;19919;-77
2021/12/01 02:57:48;;;;;;;;;;;;;;;2.55;100.00;96268.09;8380756;28;20362;-75
2021/12/01 03:01:48;;;;;;;;;;;;;;;2.53;100.00;96265.72;8380633;28;19912;-75
2021/12/01 03:05:50;;;;;;;;;;;;;;;2.66;100.00;96256.09;8380025;28;19920;-77
2021/12/01 03:09:50;;;;;;;;;;;;;;;2.59;100.00;96255.72;8380793;28;19912;-77
2021/12/01 03:13:50;;;;;;;;;;;;;;;2.62;100.00;96247.13;8404866;28;19919;-78
2021/12/01 03:17:51;;;;;;;;;;;;;;;2.65;100.00;96236.63;8413766;28;19913;-78
2021/12/01 03:21:51;;;;;;;;;;;;;;;2.73;100.00;96225.22;8413713;28;19915;-77
2021/12/01 03:25:52;;;;;;;;;;;;;;;2.67;100.00;96221.09;8413349;28;20011;-77
2021/12/01 03:29:52;;;;;;;;;;;;;;;2.70;100.00;96196.44;8414256;28;19958;-79
2021/12/01 03:33:53;;;;;;;;;;;;;;;2.72;100.00;96196.94;8431651;28;19912;-79
2021/12/01 03:37:54;;;;;;;;;;;;;;;2.77;100.00;96190.69;8413388;28;20281;-77
2021/12/01 03:41:54;;;;;;;;;;;;;;;2.82;100.00;96195.94;8413022;28;19912;-77
2021/12/01 03:45:54;;;;;;;;;;;;;;;2.82;100.00;96197.81;8413690;28;19929;-78
2021/12/01 03:49:55;;;;;;;;;;;;;;;2.84;100.00;96185.75;8420169;28;19912;-81
2021/12/01 03:53:57;;;;;;;;;;;;;;;2.87;100.00;96184.31;8420577;28;19920;-80
2021/12/01 03:57:57;;;;;;;;;;;;;;;2.90;100.00;96179.19;8420092;28;20010;-80
2021/12/01 04:01:57;;;;;;;;;;;;;;;2.94;100.00;96166.00;8420155;28;19912;-80
2021/12/01 04:05:57;;;;;;;;;;;;;;;2.94;100.00;96157.97;8437931;28;20109;-80
2021/12/01 04:09:58;;;;;;;;;;;;;;;2.92;100.00;96152.94;8419804;28;19912;-81
2021/12/01 04:13:58;;;;;;;;;;;;;;;2.96;100.00;96155.78;8394161;28;19935;-79
2021/12/01 04:17:58;;;;;;;;;;;;;;;2.96;100.00;96145.91;8386475;28;19917;-78
2021/12/01 04:21:59;;;;;;;;;;;;;;;2.97;100.00;96144.03;8386218;28;20010;-78
2021/12/01 04:25:59;;;;;;;;;;;;;;;2.98;100.00;96129.56;8386446;28;19947;-78
2021/12/01 04:29:59;;;;;;;;;;;;;;;2.97;100.00;96117.28;8409008;28;19924;-79
2021/12/01 04:34:00;;;;;;;;;;;;;;;2.97;100.00;96112.75;8437072;28;19962;-78
2021/12/01 04:38:01;;;;;;;;;;;;;;;2.98;100.00;96094.81;8418768;28;20438;-77
2021/12/01 04:42:06;;;;;;;;;;;;;;;3.00;100.00;96082.72;8436853;28;20262;-77
2021/12/01 04:46:06;;;;;;;;;;;;;;;3.00;100.00;96082.72;8418395;28;19916;-75
2021/12/01 04:50:07;;;;;;;;;;;;;;;3.03;100.00;96070.63;8417583;28;19965;-75
2021/12/01 04:54:07;;;;;;;;;;;;;;;3.04;100.00;96056.97;8417790;28;19919;-76
2021/12/01 04:58:07;;;;;;;;;;;;;;;3.05;100.00;96050.53;8417365;28;19912;-75
2021/12/01 05:02:08;;;;;;;;;;;;;;;3.10;100.00;96041.59;8417717;28;19916;-79
2021/12/01 05:06:08;;;;;;;;;;;;;;;3.14;100.00;96029.97;8435531;28;19923;-78
2021/12/01 05:10:08;;;;;;;;;;;;;;;3.19;100.00;96026.38;8417300;28;19923;-78
2021/12/01 05:14:09;;;;;;;;;;;;;;;3.21;100.00;96013.47;8389452;28;19917;-76
2021/12/01 05:18:10;;;;;;;;;;;;;;;3.22;100.00;96007.03;8382528;28;19920;-77
2021/12/01 05:22:10;;;;;;;;;;;;;;;3.25;100.00;96005.66;8382586;28;19913;-77
2021/12/01 05:26:11;;;;;;;;;;;;;;;3.31;100.00;95994.50;8382205;28;20327;-78
2021/12/01 05:30:11;;;;;;;;;;;;;;;3.31;100.00;96007.09;8399662;28;19999;-78
2021/12/01 05:34:11;;;;;;;;;;;;;;;3.34;100.00;96001.91;8399691;28;20289;-77
2021/12/01 05:38:12;;;;;;;;;;;;;;;3.38;100.00;96002.88;8381756;28;19955;-78
2021/12/01 05:42:13;;;;;;;;;;;;;;;3.41;100.00;95991.53;8381317;28;19928;-78
2021/12/01 05:46:13;;;;;;;;;;;;;;;3.44;100.00;95985.59;8381566;28;19935;-79
2021/12/01 05:50:14;;;;;;;;;;;;;;;3.51;100.00;95979.78;8413168;28;19962;-80
2021/12/01 05:54:14;;;;;;;;;;;;;;;3.55;100.00;95978.84;8410653;28;19912;-79
2021/12/01 05:58:14;;;;;;;;;;;;;;;3.64;100.00;95954.00;8401378;28;20561;-79
2021/12/01 06:02:14;;;;;;;;;;;;;;;3.63;100.00;95952.41;8414462;28;20335;-77
2021/12/01 06:06:14;;;;;;;;;;;;;;;3.66;100.00;95955.28;8416268;28;19974;-78
2021/12/01 06:10:16;;;;;;;;;;;;;;;3.72;100.00;95953.22;8393312;28;19919;-78
2021/12/01 06:14:16;;;;;;;;;;;;;;;3.81;100.00;95937.97;8398886;28;19999;-78
2021/12/01 06:18:17;;;;;;;;;;;;;;;3.86;100.00;95930.59;8402070;28;19919;-78
2021/12/01 06:22:18;;;;;;;;;;;;;;;3.93;100.00;95928.22;8406527;28;20375;-78
2021/12/01 06:26:18;;;;;;;;;;;;;;;3.90;100.00;95904.00;8393319;28;20082;-83
2021/12/01 06:30:53;;;;;;;;;;;;;;;3.92;100.00;95907.13;8355567;28;331390;-84
2021/12/01 06:35:19;;;;;;;;;;;;;;;3.94;100.00;95897.69;8399419;28;19927;-83
2021/12/01 06:39:19;;;;;;;;;;;;;;;3.92;100.00;95896.41;8390153;28;20301;-83
2021/12/01 06:43:37;;;;;;;;;;;;;;;3.95;100.00;95901.16;8394061;28;20019;-83
2021/12/01 06:47:38;;;;;;;;;;;;;;;3.98;100.00;95889.78;8381200;28;20045;-80
2021/12/01 06:51:38;;;;;;;;;;;;;;;4.06;100.00;95878.28;8381755;28;19908;-88
2021/12/01 06:55:38;;;;;;;;;;;;;;;4.10;100.00;95873.91;8387234;28;20365;-83
2021/12/01 06:59:38;;;;;;;;;;;;;;;4.10;100.00;95852.47;8390990;28;19923;-84
2021/12/01 07:03:39;;;;;;;;;;;;;;;4.12;100.00;95863.63;8379524;28;19920;-84
2021/12/01 07:07:39;;;;;;;;;;;;;;;4.16;100.00;95866.47;8380282;28;19916;-83
2021/12/01 07:11:39;;;;;;;;;;;;;;;4.19;100.00;95857.84;8386396;28;19908;-84
2021/12/01 07:15:40;;;;;;;;;;;;;;;4.20;100.00;95856.69;8413839;28;19912;-84
2021/12/01 07:19:40;;;;;;;;;;;;;;;4.20;100.00;95843.31;8413213;28;19956;-83
2021/12/01 07:23:40;;;;;;;;;;;;;;;4.18;100.00;95845.53;8413303;28;20347;-83
2021/12/01 07:27:41;;;;;;;;;;;;;;;4.23;100.00;95824.72;8413172;28;20306;-83
2021/12/01 07:31:41;;;;;;;;;;;;;;;4.29;100.00;95822.66;8412965;28;20392;-83
2021/12/01 07:35:41;;;;;;;;;;;;;;;4.33;100.00;95807.53;8412956;28;19923;-83
2021/12/01 07:39:41;;;;;;;;;;;;;;;4.34;100.00;95798.38;8431115;28;19908;-83
2021/12/01 07:43:42;;;;;;;;;;;;;;;4.41;100.00;95787.97;8412788;28;19969;-83
2021/12/01 07:47:42;;;;;;;;;;;;;;;4.45;100.00;95780.06;8412224;28;19965;-82
2021/12/01 07:51:42;;;;;;;;;;;;;;;4.50;100.00;95772.66;8413046;28;19993;-83
2021/12/01 07:55:42;;;;;;;;;;;;;;;4.57;100.00;95753.38;8431227;28;20246;-83
2021/12/01 07:59:43;;;;;;;;;;;;;;;4.73;100.00;95732.97;8412611;28;19939;-82
2021/12/01 08:03:43;;;;;;;;;;;;;;;4.65;100.00;95737.28;8412455;28;19908;-82
2021/12/01 08:07:43;;;;;;;;;;;;;;;4.69;100.00;95732.03;8412271;28;20369;-83
2021/12/01 08:11:43;;;;;;;;;;;;;;;4.83;100.00;95727.22;8405436;28;19915;-83
2021/12/01 08:15:45;;;;;;;;;;;;;;;4.83;100.00;95707.69;8378898;28;19920;-82
2021/12/01 08:19:45;;;;;;;;;;;;;;;4.97;100.00;95703.63;8378987;28;19923;-82
2021/12/01 08:23:46;;;;;;;;;;;;;;;5.13;100.00;95701.94;8378831;28;19908;-83
2021/12/01 08:27:46;;;;;;;;;;;;;;;5.28;100.00;95695.19;8382832;28;19920;-83
2021/12/01 08:31:46;;;;;;;;;;;;;;;5.57;99.62;95694.31;8412016;28;19971;-83
2021/12/01 08:35:46;;;;;;;;;;;;;;;5.71;97.85;95667.19;8418270;28;20315;-83
2021/12/01 08:39:48;;;;;;;;;;;;;;;5.71;97.31;95664.50;8418145;28;19915;-83
2021/12/01 08:43:49;;;;;;;;;;;;;;;5.72;97.45;95656.13;8417802;28;19908;-83
2021/12/01 08:47:49;;;;;;;;;;;;;;;5.67;96.60;95645.59;8417532;28;19927;-83
2021/12/01 08:51:49;;;;;;;;;;;;;;;5.74;98.05;95651.22;8417743;28;19908;-83
2021/12/01 08:55:50;;;;;;;;;;;;;;;5.81;97.73;95638.03;8417184;28;19911;-84
2021/12/01 08:59:50;;;;;;;;;;;;;;;5.94;96.38;95633.47;8417134;28;20307;-82
2021/12/01 09:03:51;;;;;;;;;;;;;;;6.63;95.21;95627.97;8434985;28;19909;-82
2021/12/01 09:07:51;;;;;;;;;;;;;;;7.26;93.39;95617.47;8416934;28;20368;-83
2021/12/01 09:11:52;;;;;;;;;;;;;;;7.64;89.98;95608.09;8426433;28;20284;-82
2021/12/01 09:15:53;;;;;;;;;;;;;;;7.99;88.74;95600.13;8383231;28;19908;-82
2021/12/01 09:19:53;;;;;;;;;;;;;;;8.21;87.48;95581.41;8383269;28;19908;-82
2021/12/01 09:23:54;;;;;;;;;;;;;;;8.24;85.71;95591.47;8400544;28;19909;-83
2021/12/01 09:27:54;;;;;;;;;;;;;;;8.19;84.02;95574.78;8387704;28;19916;-81
2021/12/01 09:31:58;;;;;;;;;;;;;;;7.70;86.79;95587.84;8433542;28;19908;-82
2021/12/01 09:35:58;;;;;;;;;;;;;;;7.32;86.68;95577.63;8415629;28;19920;-81
2021/12/01 09:39:59;;;;;;;;;;;;;;;7.11;89.95;95559.00;8415566;28;19954;-82
2021/12/01 09:43:59;;;;;;;;;;;;;;;6.98;89.89;95547.53;8433213;28;19986;-80
2021/12/01 09:47:59;;;;;;;;;;;;;;;7.06;89.89;95541.22;8415473;28;19915;-82
2021/12/01 09:51:59;;;;;;;;;;;;;;;6.96;90.63;95533.63;8414722;28;19908;-81
2021/12/01 09:56:00;;;;;;;;;;;;;;;7.01;90.42;95511.88;8414707;28;20297;-81
2021/12/01 10:00:00;;;;;;;;;;;;;;;6.98;91.12;95511.78;8414753;28;20223;-81
2021/12/01 10:04:01;;;;;;;;;;;;;;;7.01;90.75;95495.75;8414198;28;19908;-81
2021/12/01 10:08:01;;;;;;;;;;;;;;;7.17;90.99;95495.00;8414234;28;19958;-80
2021/12/01 10:12:06;;;;;;;0.73;0.52;;;;;;;7.18;89.76;95491.94;8404503;28;19912;-81
2021/12/01 10:16:12;;;;;;;0.90;0.60;;;;;;;7.23;89.30;95493.59;8380085;28;20024;-80
2021/12/01 10:20:18;;;;;;;3.43;0.80;;;;;;;7.24;90.80;95485.19;8398070;28;20024;-81
2021/12/01 10:24:23;;;;;;;2.25;0.55;;;;;;;7.37;89.76;95461.66;8379874;28;20024;-80
2021/12/01 10:28:34;;;;;;;;;;;;;;;7.56;89.77;95460.94;8389601;28;20535;-80
2021/12/01 10:32:34;;;;;;;;;;;;;;;7.65;88.85;95446.19;8413044;28;19994;-80
2021/12/01 10:36:34;;;;;;;;;;;;;;;7.95;89.14;95426.84;8413306;28;20003;-80
2021/12/01 10:40:36;;;;;;;;;;;;;;;7.90;86.85;95427.88;8412972;28;19914;-80
2021/12/01 10:44:36;;;;;;;;;;;;;;;8.15;86.79;95425.72;8412817;28;20376;-81
2021/12/01 10:48:36;;;;;;;;;;;;;;;8.12;85.95;95394.88;8412928;28;20349;-82
2021/12/01 10:52:38;;;;;;;;;;;;;;;8.05;85.56;95405.50;8412633;28;19908;-81
2021/12/01 10:56:39;;;;;;;;;;;;;;;7.99;85.41;95390.75;8412579;28;19911;-80
2021/12/01 11:00:42;;;;;;;;;;;;;;;7.93;86.74;95386.78;8412538;28;19918;-81
2021/12/01 11:04:46;;;;;;;;;;;;;;;8.14;85.78;95371.06;8430932;28;19908;-81
2021/12/01 11:08:48;;;;;;;;;;;;;;;8.15;85.51;95371.84;8412238;28;19912;-81
2021/12/01 11:12:54;;;;;;;;;;;;;;;8.11;87.65;95358.28;8396120;28;19909;-80
2021/12/01 11:16:57;;;;;;;;;;;;;;;8.23;89.04;95365.47;8379107;28;19912;-81
2021/12/01 11:20:58;;;;;;;;;;;;;;;8.16;91.06;95344.53;8378972;28;19908;-81
2021/12/01 11:25:18;;;;;;;;;;;;;;;8.12;91.90;95334.81;8396800;28;19909;-81
2021/12/01 11:29:20;;;;;;;;;;;;;;;7.87;93.61;95326.25;8395949;28;19935;-81
2021/12/01 11:33:20;;;;;;;;;;;;;;;7.85;93.37;95317.72;8412077;28;19912;-81
2021/12/01 11:37:21;;;;;;;;;;;;;;;8.17;93.01;95313.00;8412132;28;19962;-81
2021/12/01 11:41:21;;;;;;;;;;;;;;;8.74;90.73;95293.22;8412448;28;19914;-82
2021/12/01 11:45:22;;;;;;;;;;;;;;;9.32;88.20;95288.34;8411803;28;19985;-82
2021/12/01 11:49:24;;;;;;;;;;;;;;;9.33;86.94;95273.69;8412039;28;19908;-80
2021/12/01 11:53:26;;;;;;;;;;;;;;;9.24;85.52;95261.59;8429951;28;19908;-81
2021/12/01 11:57:37;;;;;;;;;;;;;;;9.42;86.21;95257.25;8411945;28;19908;-81
2021/12/01 12:01:38;;;;;;;;;;;;;;;9.31;85.24;95232.00;8411566;28;19977;-80
2021/12/01 12:05:38;;;;;;;;;;;;;;;9.23;85.51;95246.56;8411794;28;19955;-80
2021/12/01 12:09:39;;;;;;;;;;;;;;;9.35;85.91;95233.63;8416520;28;19916;-80
2021/12/01 12:13:59;;;;;;;;;;;;;;;9.28;86.60;95230.84;8417828;28;19949;-81
2021/12/01 12:17:59;;;;;;;;;;;;;;;9.22;87.22;95226.91;8417917;28;19939;-81
2021/12/01 12:21:59;;;;;;;;;;;;;;;9.08;87.37;95220.53;8417444;28;20357;-81
2021/12/01 12:25:59;;;;;;;;;;;;;;;9.28;88.07;95201.13;8417710;28;19916;-80
2021/12/01 12:30:01;;;;;;;;;;;;;;;9.13;87.25;95202.09;8394187;28;20007;-80
2021/12/01 12:34:08;;;;;;;;;;;;;;;8.88;88.40;95204.41;8384211;28;20281;-80
2021/12/01 12:38:09;;;;;;;;;;;;;;;8.93;88.70;95189.84;8383861;28;19947;-82
2021/12/01 12:42:09;;;;;;;;;;;;;;;8.83;88.84;95187.78;8383534;28;19919;-81
2021/12/01 12:46:12;;;;;;;;;;;;;;;8.79;90.29;95192.34;8401713;28;19926;-81
2021/12/01 12:50:17;;;;;;;;;;;;;;;8.51;91.72;95181.91;8383420;28;20030;-81
2021/12/01 12:54:17;;;;;;;;;;;;;;;8.47;93.15;95181.84;8383358;28;19939;-81
2021/12/01 12:58:18;;;;;;;;;;;;;;;8.33;95.12;95175.44;8401224;28;19916;-80
2021/12/01 13:02:19;;;;;;;;;;;;;;;7.92;96.63;95161.66;8383220;28;19912;-82
2021/12/01 13:06:27;;;;;;;;;;;;;;;7.83;97.78;95156.50;8382983;28;20061;-81
2021/12/01 13:10:36;;;;;;;;;;;;;;;7.78;99.43;95139.84;8382427;28;19984;-81
2021/12/01 13:14:39;;;;;;;;;;;;;;;7.70;99.69;95136.25;8382913;28;19962;-81
2021/12/01 13:18:47;;;;;;;;;;;;;;;7.80;100.00;95118.75;8382124;28;19915;-81
2021/12/01 13:23:06;;;;;;;;;;;;;;;7.83;99.74;95115.31;8382223;28;20285;-81
2021/12/01 13:27:06;;;;;;;;;;;;;;;7.79;99.44;95117.19;8381763;28;20267;-80
2021/12/01 13:31:08;;;;;;;;;;;;;;;7.70;99.26;95095.88;8382039;28;20002;-81
2021/12/01 13:35:09;;;;;;;;;;;;;;;7.78;98.58;95104.84;8381648;28;19982;-81
2021/12/01 13:39:14;;;;;;;;;;;;;;;7.68;97.69;95102.72;8381909;28;19938;-81
2021/12/01 13:43:20;;;;;;;;;;;;;;;7.67;97.98;95093.88;8381520;28;19912;-81
2021/12/01 13:47:23;;;;;;;;;;;;;;;7.71;97.50;95083.97;8381473;28;19985;-81
2021/12/01 13:51:23;;;;;;;;;;;;;;;7.58;97.94;95095.25;8380986;28;19913;-81
2021/12/01 13:55:25;;;;;;;;;;;;;;;7.55;98.26;95083.28;8381762;28;19962;-81
2021/12/01 13:59:46;;;;;;;;;;;;;;;7.46;98.64;95083.50;8381581;28;19923;-81
2021/12/01 14:04:16;;;;;;;;;;;;;;;7.47;99.11;95084.28;8380461;28;19908;-81
2021/12/01 14:08:19;;;;;;;;;;;;;;;7.29;100.00;95070.53;8381866;28;20370;-81
2021/12/01 14:12:20;;;;;;;;;;;;;;;7.22;100.00;95066.91;8392428;28;19915;-81
2021/12/01 14:16:21;;;;;;;;;;;;;;;7.14;100.00;95066.00;8413525;28;19912;-82
2021/12/01 14:20:25;;;;;;;;;;;;;;;7.05;100.00;95074.28;8404102;28;19912;-81
2021/12/01 14:24:28;;;;;;;;;;;;;;;7.01;100.00;95075.38;8413080;28;19947;-81
2021/12/01 14:28:32;;;;;;;;;;;;;;;6.95;100.00;95071.41;8409800;28;19967;-81
2021/12/01 14:32:32;;;;;;;;;;;;;;;6.97;100.00;95069.91;8395723;28;20281;-80
2021/12/01 14:36:33;;;;;;;;;;;;;;;6.97;100.00;95061.06;8391546;28;20084;-81
2021/12/01 14:40:53;;;;;;;;;;;;;;;6.91;100.00;95057.88;8383851;28;20435;-78
2021/12/01 14:45:03;;;;;;;;;;;;;;;6.86;100.00;95090.44;8399581;28;19912;-79
2021/12/01 14:49:09;;;;;;;;;;;;;;;6.78;100.00;95074.50;8412696;28;19920;-78
2021/12/01 14:53:12;;;;;;;;;;;;;;;6.71;100.00;95071.66;8396872;28;19935;-79
2021/12/01 14:57:15;;;;;;;;;;;;;;;6.68;100.00;95068.53;8401011;28;19912;-79
2021/12/01 15:01:23;;;;;;;;;;;;;;;6.60;100.00;95060.72;8391264;28;20309;-77
2021/12/01 15:05:26;;;;;;;;;;;;;;;6.53;100.00;95068.63;8391990;28;19926;-78
2021/12/01 15:09:52;;;;;;;;;;;;;;;6.48;100.00;95072.34;8401976;28;19915;-79
2021/12/01 15:13:53;;;;;;;;;;;;;;;6.42;100.00;95071.06;8406219;28;19956;-79
2021/12/01 15:17:57;;;;;;;;;;;;;;;6.40;100.00;95069.84;8398081;28;19912;-79
2021/12/01 15:21:57;;;;;;;;;;;;;;;6.35;100.00;95064.75;8404799;28;19908;-78
2021/12/01 15:25:58;;;;;;;;;;;;;;;6.34;100.00;95053.22;8398017;28;19958;-78
2021/12/01 15:29:59;;;;;;;;;;;;;;;6.31;100.00;95056.63;8389528;28;19997;-78
2021/12/01 15:34:01;;;;;;;;;;;;;;;6.31;100.00;95067.38;8398725;28;20005;-77
2021/12/01 15:38:03;;;;;;;;;;;;;;;6.36;100.00;95064.41;8401088;28;19982;-78
2021/12/01 15:42:04;;;;;;;;;;;;;;;6.35;100.00;95068.22;8408780;28;19957;-81
2021/12/01 15:46:04;;;;;;;;;;;;;;;6.38;100.00;95074.81;8412728;28;20353;-78
2021/12/01 15:50:07;;;;;;;;;;;;;;;6.35;100.00;95078.97;8407355;28;19911;-84
2021/12/01 15:54:08;;;;;;;;;;;;;;;6.34;100.00;95085.47;8413442;28;19907;-81
2021/12/01 15:58:08;;;;;;;;;;;;;;;6.39;100.00;95068.31;8418273;28;19908;-77
2021/12/01 16:02:11;;;;;;;;;;;;;;;6.36;100.00;95075.16;8416974;28;20254;-84
2021/12/01 16:06:11;;;;;;;;;;;;;;;6.29;100.00;95070.41;8413224;28;19912;-78
2021/12/01 16:10:12;;;;;;;;;;;;;;;6.29;100.00;95073.09;8417249;28;19915;-77
2021/12/01 16:14:15;;;;;;;;;;;;;;;6.27;100.00;95066.50;8417746;28;20418;-77
2021/12/01 16:18:15;;;;;;;;;;;;;;;6.15;100.00;95066.63;8413700;28;19912;-85
2021/12/01 16:22:15;;;;;;;;;;;;;;;6.04;100.00;95068.31;8404399;28;20417;-84
2021/12/01 16:26:16;;;;;;;;;;;;;;;6.04;100.00;95065.63;8406606;28;19939;-86
2021/12/01 16:30:19;;;;;;;;;;;;;;;5.92;100.00;95066.47;8412923;28;19923;-84
2021/12/01 16:34:19;;;;;;;;;;;;;;;5.92;100.00;95071.84;8422679;28;20272;-85
2021/12/01 16:38:19;;;;;;;;;;;;;;;5.89;100.00;95077.94;8404452;28;20012;-84
2021/12/01 16:42:20;;;;;;;;;;;;;;;5.83;100.00;95072.00;8425011;28;19916;-85
2021/12/01 16:46:20;;;;;;;;;;;;;;;5.83;100.00;95071.22;8408277;28;19921;-84
2021/12/01 16:50:21;;;;;;;;;;;;;;;5.85;100.00;95093.13;8397074;28;20019;-81
2021/12/01 16:54:21;;;;;;;;;;;;;;;5.94;100.00;95091.09;8408672;28;19923;-91
2021/12/01 16:58:22;;;;;;;;;;;;;;;5.99;100.00;95085.44;8402663;28;19912;-91
2021/12/01 17:02:22;;;;;;;;;;;;;;;6.07;100.00;95099.81;8418701;28;19908;-91
2021/12/01 17:06:28;;;;;;;;;;;;;;;6.20;100.00;95096.69;8418988;28;19912;-86
2021/12/01 17:10:29;;;;;;;;;;;;;;;6.14;99.39;95110.72;8418994;28;19908;-90
2021/12/01 17:14:29;;;;;;;;;;;;;;;6.15;98.67;95114.97;8388914;28;19916;-90
2021/12/01 17:18:31;;;;;;;;;;;;;;;6.20;97.71;95130.81;8385427;28;20382;-90
2021/12/01 17:22:32;;;;;;;;;;;;;;;6.23;97.01;95119.38;8385343;28;19999;-90
2021/12/01 17:26:32;;;;;;;;;;;;;;;6.16;96.53;95132.66;8384313;28;19917;-91
2021/12/01 17:30:43;;;;;;;;;;;;;;;6.18;96.31;95143.84;8411737;28;19908;-90
2021/12/01 17:34:44;;;;;;;;;;;;;;;6.14;96.35;95141.06;8417530;28;20004;-90
2021/12/01 17:38:45;;;;;;;;;;;;;;;6.12;96.38;95145.19;8417177;28;20423;-90
2021/12/01 17:42:45;;;;;;;;;;;;;;;6.15;96.80;95156.03;8417097;28;19908;-90
2021/12/01 17:46:46;;;;;;;;;;;;;;;6.11;96.77;95136.34;8416689;28;19912;-89
2021/12/01 17:50:47;;;;;;;;;;;;;;;6.11;97.17;95154.41;8402410;28;19923;-85
2021/12/01 17:54:47;;;;;;;;;;;;;;;6.04;97.54;95148.88;8395194;28;19913;-82
2021/12/01 17:58:47;;;;;;;;;;;;;;;6.00;97.65;95161.41;8403048;28;19914;-85
2021/12/01 18:02:48;;;;;;;;;;;;;;;5.89;98.23;95164.63;8428834;28;19949;-81
2021/12/01 18:06:49;;;;;;;;;;;;;;;5.89;98.55;95175.34;8400740;28;19922;-80
2021/12/01 18:10:49;;;;;;;;;;;;;;;5.90;98.54;95189.53;8391186;28;19920;-80
2021/12/01 18:14:50;;;;;;;;;;;;;;;5.85;99.02;95195.91;8408484;28;19920;-82
2021/12/01 18:18:51;;;;;;;;;;;;;;;5.88;99.62;95203.31;8400240;28;19960;-82
2021/12/01 18:22:51;;;;;;;;;;;;;;;5.82;99.12;95207.38;8414586;28;19931;-82
2021/12/01 18:26:53;;;;;;;;;;;;;;;5.83;98.74;95206.22;8391782;28;19917;-82
2021/12/01 18:30:53;;;;;;;;;;;;;;;5.73;98.78;95206.72;8380350;28;19919;-80
2021/12/01 18:34:53;;;;;;;;;;;;;;;5.65;99.10;95214.94;8404673;28;19907;-82
2021/12/01 18:38:53;;;;;;;;;;;;;;;5.56;99.39;95225.81;8408305;28;19966;-81
2021/12/01 18:42:54;;;;;;;;;;;;;;;5.56;99.53;95233.84;8392082;28;19919;-82
2021/12/01 18:46:55;;;;;;;;;;;;;;;5.46;100.00;95235.13;8391245;28;19912;-78
2021/12/01 18:50:55;;;;;;;;;;;;;;;5.39;100.00;95245.66;8379507;28;19916;-82
2021/12/01 18:54:56;;;;;;;;;;;;;;;5.38;100.00;95248.69;8391326;28;19943;-80
2021/12/01 18:58:57;;;;;;;;;;;;;;;5.34;100.00;95261.19;8391447;28;20007;-79
2021/12/01 19:02:58;;;;;;;;;;;;;;;5.32;100.00;95263.47;8412559;28;19915;-80
2021/12/01 19:06:58;;;;;;;;;;;;;;;5.29;100.00;95270.28;8412573;28;19916;-80
2021/12/01 19:10:58;;;;;;;;;;;;;;;5.33;100.00;95271.16;8412484;28;19952;-80
2021/12/01 19:14:59;;;;;;;;;;;;;;;5.32;100.00;95272.28;8408106;28;19908;-80
2021/12/01 19:18:59;;;;;;;;;;;;;;;5.33;100.00;95270.41;8379813;28;19920;-80
2021/12/01 19:23:00;;;;;;;;;;;;;;;5.30;100.00;95268.38;8379814;28;19908;-80
2021/12/01 19:27:00;;;;;;;;;;;;;;;5.27;100.00;95269.81;8379072;28;20289;-80
2021/12/01 19:31:03;;;;;;;;;;;;;;;5.15;100.00;95269.06;8418711;28;21313;-80
2021/12/01 19:35:04;;;;;;;;;;;;;;;5.09;100.00;95265.84;8404539;28;19916;-80
2021/12/01 19:39:05;;;;;;;;;;;;;;;5.07;100.00;95263.50;8400070;28;19916;-84
2021/12/01 19:43:05;;;;;;;;;;;;;;;5.11;100.00;95266.31;8394569;28;19974;-80
2021/12/01 19:47:06;;;;;;;;;;;;;;;5.05;100.00;95271.09;8392724;28;19966;-84
2021/12/01 19:51:16;;;;;;;;;;;;;;;5.04;100.00;95285.59;8396911;28;20297;-85
2021/12/01 19:55:18;;;;;;;;;;;;;;;5.08;100.00;95288.41;8381461;28;19916;-81
2021/12/01 19:59:19;;;;;;;;;;;;;;;5.05;100.00;95291.75;8407730;28;19916;-83
2021/12/01 20:03:19;;;;;;;;;;;;;;;5.03;100.00;95294.00;8404409;28;19912;-85
2021/12/01 20:07:21;;;;;;;;;;;;;;;5.05;100.00;95283.72;8408981;28;19923;-83
2021/12/01 20:11:22;;;;;;;;;;;;;;;5.04;100.00;95287.53;8408161;28;19962;-84
2021/12/01 20:15:24;;;;;;;;;;;;;;;5.07;100.00;95290.31;8404825;28;19955;-86
2021/12/01 20:19:24;;;;;;;;;;;;;;;5.09;100.00;95290.75;8383045;28;19912;-91
2021/12/01 20:23:25;;;;;;;;;;;;;;;5.09;100.00;95292.66;8404050;28;19923;-81
2021/12/01 20:27:25;;;;;;;;;;;;;;;5.04;100.00;95284.84;8384623;28;19943;-83
2021/12/01 20:31:26;;;;;;;;;;;;;;;5.02;100.00;95281.72;8390598;28;20389;-89
2021/12/01 20:35:47;;;;;;;;;;;;;;;5.01;100.00;95293.56;8409542;28;20278;-91
2021/12/01 20:39:49;;;;;;;;;;;;;;;4.99;100.00;95293.88;8410855;28;19935;-88
2021/12/01 20:43:50;;;;;;;;;;;;;;;4.94;100.00;95296.03;8400244;28;19943;-85
2021/12/01 20:48:08;;;;;;;;;;;;;;;5.04;100.00;95287.53;8393198;28;19931;-79
2021/12/01 20:57:29;;;;;;;;;;;;;;;5.06;100.00;95296.78;8432630;28;19962;-81
2021/12/01 21:05:16;;;;;;;;;;;;;;;5.02;100.00;95311.22;8417418;28;19923;-81
2021/12/01 21:09:26;;;;;;;;;;;;;;;4.89;100.00;95315.81;8380675;28;19943;-80
2021/12/01 21:13:29;;;;;;;;;;;;;;;4.81;100.00;95316.69;8403370;28;19912;-80
2021/12/01 21:17:32;;;;;;;;;;;;;;;4.79;100.00;95304.72;8414766;28;19912;-79